Terminal Aerodrome Forecast
Issued by NWS

Home | Current Version | Previous Version | Text Only | Print | Product List | Glossary On
Versions: 1 2 3 4 5 6 7 8 9 10 11 12 13
000
FTUS43 KGRR 192300
TAFJXN
TAF
KJXN 192340Z 2000/2024 17008KT P6SM SKC
     FM201000 20012KT P6SM BKN050
     FM201800 20011G19KT P6SM VCTS BKN050CB PROB30 2020/2024 5SM
      -TSRA BKN015CB=

USA.gov is the U.S. government's official web portal to all federal, state and local government web resources and services.